createdAt,value
2022-11-03T00:01:15.344Z,98936.94
2022-11-03T00:04:02.846Z,98934.50
2022-11-03T00:06:53.317Z,98933.56
2022-11-03T00:09:40.714Z,98930.19
2022-11-03T00:12:28.138Z,98925.03
2022-11-03T00:15:16.667Z,98924.28
2022-11-03T00:18:05.622Z,98915.66
2022-11-03T00:21:01.455Z,98918.38
2022-11-03T00:23:49.334Z,98916.72
2022-11-03T00:26:38.072Z,98911.66
2022-11-03T00:29:25.852Z,98909.94
2022-11-03T00:32:13.593Z,98909.94
2022-11-03T00:35:02.524Z,98908.25
2022-11-03T00:37:49.837Z,98899.63
2022-11-03T00:40:37.116Z,98897.94
2022-11-03T00:43:26.332Z,98898.97
2022-11-03T00:46:14.785Z,98898.13
2022-11-03T00:49:04.769Z,98896.44
2022-11-03T00:51:53.845Z,98887.81
2022-11-03T00:54:45.267Z,98883.50
2022-11-03T00:57:33.145Z,98893.06
2022-11-03T01:00:21.030Z,98894.94
2022-11-03T01:03:08.861Z,98893.34
2022-11-03T01:06:14.392Z,98886.44
2022-11-03T01:09:03.287Z,98882.94
2022-11-03T01:11:59.680Z,98870.00
2022-11-03T01:14:49.865Z,98870.94
2022-11-03T01:17:37.394Z,98868.41
2022-11-03T01:20:25.099Z,98852.75
2022-11-03T01:23:12.501Z,98857.25
2022-11-03T01:26:06.191Z,98853.81
2022-11-03T01:28:53.637Z,98859.06
2022-11-03T01:31:41.370Z,98855.75
2022-11-03T01:34:29.225Z,98851.38
2022-11-03T01:37:16.780Z,98851.47
2022-11-03T01:40:04.306Z,98846.31
2022-11-03T01:42:53.013Z,98849.88
2022-11-03T01:45:40.809Z,98840.19
2022-11-03T01:48:30.019Z,98839.47
2022-11-03T01:51:23.414Z,98835.13
2022-11-03T01:54:16.071Z,98820.34
2022-11-03T01:57:11.557Z,98811.69
2022-11-03T02:00:02.513Z,98821.47
2022-11-03T02:02:53.033Z,98816.41
2022-11-03T02:05:42.900Z,98807.78
2022-11-03T02:08:37.517Z,98814.91
2022-11-03T02:11:42.644Z,98809.66
2022-11-03T02:14:30.125Z,98795.88
2022-11-03T02:17:22.893Z,98790.72
2022-11-03T02:20:17.628Z,98790.72
2022-11-03T02:23:25.879Z,98773.41
2022-11-03T02:26:17.762Z,98780.44
2022-11-03T02:29:05.495Z,98776.22
2022-11-03T02:32:06.319Z,98776.22
2022-11-03T02:35:04.544Z,98777.22
2022-11-03T02:37:59.330Z,98766.00
2022-11-03T02:40:53.437Z,98764.28
2022-11-03T02:43:46.031Z,98756.75
2022-11-03T02:46:35.937Z,98765.63
2022-11-03T02:49:24.142Z,98761.31
2022-11-03T02:52:38.926Z,98748.22
2022-11-03T02:55:39.066Z,98750.94
2022-11-03T02:58:38.229Z,98747.63
2022-11-03T03:01:38.324Z,98744.19
2022-11-03T03:04:34.668Z,98746.06
2022-11-03T03:07:28.695Z,98743.53
2022-11-03T03:10:19.777Z,98729.66
2022-11-03T03:13:11.185Z,98728.94
2022-11-03T03:16:12.881Z,98727.25
2022-11-03T03:19:18.863Z,98729.13
2022-11-03T03:22:24.593Z,98723.88
2022-11-03T03:25:17.974Z,98717.84
2022-11-03T03:28:13.310Z,98721.44
2022-11-03T03:31:06.836Z,98706.84
2022-11-03T03:34:04.389Z,98713.09
2022-11-03T03:37:02.022Z,98703.44
2022-11-03T03:39:56.741Z,98698.28
2022-11-03T03:42:48.403Z,98687.91
2022-11-03T03:45:37.437Z,98686.22
2022-11-03T03:48:27.340Z,98690.63
2022-11-03T03:51:21.067Z,98683.78
2022-11-03T03:54:11.888Z,98692.59
2022-11-03T03:57:03.994Z,98684.06
2022-11-03T03:59:53.524Z,98685.84
2022-11-03T04:02:41.032Z,98682.50
2022-11-03T04:05:29.181Z,98679.97
2022-11-03T04:08:19.198Z,98680.88
2022-11-03T04:11:25.686Z,98677.44
2022-11-03T04:14:30.673Z,98681.06
2022-11-03T04:17:39.592Z,98677.44
2022-11-03T04:20:45.528Z,98670.41
2022-11-03T04:23:32.913Z,98668.63
2022-11-03T04:26:24.277Z,98666.00
2022-11-03T04:29:13.556Z,98667.78
2022-11-03T04:32:01.483Z,98663.38
2022-11-03T04:34:50.103Z,98657.38
2022-11-03T04:37:42.488Z,98653.00
2022-11-03T04:40:33.386Z,98653.84
2022-11-03T04:43:30.570Z,98649.50
2022-11-03T04:46:27.435Z,98653.09
2022-11-03T04:49:23.245Z,98647.09
2022-11-03T04:52:17.599Z,98641.97
2022-11-03T04:55:14.953Z,98639.44
2022-11-03T04:58:16.561Z,98636.72
2022-11-03T05:01:10.825Z,98629.88
2022-11-03T05:03:58.610Z,98622.19
2022-11-03T05:06:54.717Z,98622.19
2022-11-03T05:09:43.969Z,98616.94
2022-11-03T05:12:32.513Z,98610.88
2022-11-03T05:15:44.921Z,98609.19
2022-11-03T05:18:40.850Z,98606.56
2022-11-03T05:21:32.002Z,98600.50
2022-11-03T05:24:26.288Z,98604.03
2022-11-03T05:27:21.591Z,98597.03
2022-11-03T05:30:16.164Z,98591.88
2022-11-03T05:33:22.006Z,98578.84
2022-11-03T05:36:20.764Z,98571.94
2022-11-03T05:39:29.821Z,98572.84
2022-11-03T05:42:32.472Z,98569.31
2022-11-03T05:45:27.163Z,98568.47
2022-11-03T05:48:26.539Z,98567.53
2022-11-03T05:51:22.366Z,98558.94
2022-11-03T05:54:22.954Z,98556.31
2022-11-03T05:57:14.942Z,98548.53
2022-11-03T06:00:05.402Z,98549.59
2022-11-03T06:02:52.979Z,98547.88
2022-11-03T06:05:46.457Z,98547.69
2022-11-03T06:08:40.201Z,98549.59
2022-11-03T06:11:37.945Z,98546.84
2022-11-03T06:14:28.185Z,98550.41
2022-11-03T06:17:24.037Z,98557.31
2022-11-03T06:20:21.983Z,98554.84
2022-11-03T06:23:13.699Z,98564.38
2022-11-03T06:26:17.666Z,98563.50
2022-11-03T06:29:10.101Z,98554.84
2022-11-03T06:31:58.847Z,98554.84
2022-11-03T06:34:49.891Z,98553.88
2022-11-03T06:37:37.882Z,98551.25
2022-11-03T06:40:37.110Z,98548.53
2022-11-03T06:43:32.456Z,98547.69
2022-11-03T06:46:23.968Z,98544.22
2022-11-03T06:49:30.564Z,98550.22
2022-11-03T06:52:27.950Z,98552.75
2022-11-03T06:55:29.047Z,98550.03
2022-11-03T06:58:26.410Z,98555.16
2022-11-03T07:01:21.237Z,98551.41
2022-11-03T07:04:19.927Z,98543.34
2022-11-03T07:07:08.748Z,98538.09
2022-11-03T07:10:01.168Z,98542.09
2022-11-03T07:12:49.061Z,98536.66
2022-11-03T07:15:39.975Z,98539.94
2022-11-03T07:18:39.415Z,98526.63
2022-11-03T07:21:36.287Z,98524.34
2022-11-03T07:24:28.769Z,98526.66
2022-11-03T07:27:26.859Z,98532.78
2022-11-03T07:30:24.194Z,98527.53
2022-11-03T07:33:21.141Z,98514.69
2022-11-03T07:36:19.580Z,98509.13
2022-11-03T07:39:13.486Z,98505.38
2022-11-03T07:42:01.292Z,98512.75
2022-11-03T07:44:50.744Z,98501.16
2022-11-03T07:47:39.318Z,98493.22
2022-11-03T07:50:27.307Z,98498.09
2022-11-03T07:53:26.320Z,98499.75
2022-11-03T07:56:21.662Z,98487.38
2022-11-03T07:59:18.735Z,98484.69
2022-11-03T08:02:31.722Z,98476.81
2022-11-03T08:08:12.224Z,98458.56
2022-11-03T08:11:02.662Z,98456.75
2022-11-03T08:13:50.505Z,98444.28
2022-11-03T08:16:38.182Z,98447.16
2022-11-03T08:19:25.996Z,98444.50
2022-11-03T08:22:13.560Z,98440.72
2022-11-03T08:25:00.997Z,98442.25
2022-11-03T08:27:49.786Z,98433.09
2022-11-03T08:30:37.481Z,98422.28
2022-11-03T08:33:24.926Z,98427.91
2022-11-03T08:36:13.509Z,98428.22
2022-11-03T08:39:01.068Z,98422.19
2022-11-03T08:41:48.463Z,98413.63
2022-11-03T08:44:37.494Z,98405.31
2022-11-03T08:47:25.620Z,98395.81
2022-11-03T08:50:13.179Z,98383.16
2022-11-03T08:53:00.725Z,98373.19
2022-11-03T08:55:48.306Z,98372.84
2022-11-03T08:58:36.490Z,98373.16
2022-11-03T09:01:25.655Z,98360.34
2022-11-03T09:04:13.145Z,98347.28
2022-11-03T09:07:00.866Z,98349.25
2022-11-03T09:12:55.869Z,98349.13
2022-11-03T09:15:44.417Z,98337.31
2022-11-03T09:18:34.053Z,98331.00
2022-11-03T09:21:21.852Z,98324.13
2022-11-03T09:24:09.947Z,98318.50
2022-11-03T09:27:02.136Z,98310.59
2022-11-03T09:30:11.599Z,98296.31
2022-11-03T09:32:58.383Z,98279.50
2022-11-03T09:35:47.344Z,98264.66
2022-11-03T09:38:34.869Z,98264.66
2022-11-03T09:41:28.127Z,98257.38
2022-11-03T09:44:34.424Z,98246.31
2022-11-03T09:47:30.247Z,98242.63
2022-11-03T09:50:23.502Z,98250.06
2022-11-03T09:53:13.259Z,98238.03
2022-11-03T09:56:00.791Z,98228.09
2022-11-03T09:58:53.044Z,98220.88
2022-11-03T10:01:44.043Z,98226.25
2022-11-03T10:04:32.661Z,98219.66
2022-11-03T10:07:22.154Z,98215.97
2022-11-03T10:10:19.989Z,98199.72
2022-11-03T10:13:12.472Z,98188.09
2022-11-03T10:16:03.208Z,98182.13
2022-11-03T10:18:51.461Z,98169.34
2022-11-03T10:21:40.615Z,98152.81
2022-11-03T10:24:28.224Z,98146.13
2022-11-03T10:27:26.444Z,98139.56
2022-11-03T10:30:14.730Z,98133.69
2022-11-03T10:33:03.383Z,98137.66
2022-11-03T10:35:51.396Z,98132.84
2022-11-03T10:38:39.220Z,98141.78
2022-11-03T10:41:29.506Z,98135.03
2022-11-03T10:44:20.694Z,98128.16
2022-11-03T10:47:22.201Z,98128.19
2022-11-03T10:50:24.836Z,98120.13
2022-11-03T10:53:21.995Z,98111.66
2022-11-03T10:56:10.001Z,98116.28
2022-11-03T11:01:53.220Z,98095.47
2022-11-03T11:04:42.051Z,98085.00
2022-11-03T11:07:36.579Z,98086.38
2022-11-03T11:10:26.631Z,98066.59
2022-11-03T11:13:29.413Z,98066.75
2022-11-03T11:16:59.139Z,98062.72
2022-11-03T11:20:29.566Z,98057.25
2022-11-03T11:23:52.981Z,98046.69
2022-11-03T11:26:42.181Z,98047.91
2022-11-03T11:29:38.881Z,98039.34
2022-11-03T11:33:15.469Z,98031.66
2022-11-03T11:36:23.878Z,98027.72
2022-11-03T11:39:13.542Z,98017.91
2022-11-03T11:42:14.265Z,98000.59
2022-11-03T11:45:04.103Z,97996.47
2022-11-03T11:47:52.266Z,97992.94
2022-11-03T11:50:41.575Z,97986.72
2022-11-03T11:53:36.948Z,97984.94
2022-11-03T11:56:24.959Z,97984.44
2022-11-03T11:59:24.633Z,97984.72
2022-11-03T12:02:21.273Z,97987.53
2022-11-03T12:05:25.431Z,97986.03
2022-11-03T12:08:21.811Z,97975.78
2022-11-03T12:11:13.826Z,97965.56
2022-11-03T12:14:03.160Z,97950.22
2022-11-03T12:16:51.257Z,97951.41
2022-11-03T12:19:44.931Z,97944.94
2022-11-03T12:22:43.207Z,97924.53
2022-11-03T12:25:40.405Z,97921.31
2022-11-03T12:28:36.363Z,97910.13
2022-11-03T12:31:24.273Z,97901.25
2022-11-03T12:34:11.972Z,97903.06
2022-11-03T12:37:00.134Z,97894.00
2022-11-03T12:39:47.878Z,97887.63
2022-11-03T12:42:37.303Z,97878.13
2022-11-03T12:45:24.985Z,97880.97
2022-11-03T12:48:12.993Z,97886.16
2022-11-03T12:51:03.571Z,97885.19
2022-11-03T12:53:51.983Z,97886.22
2022-11-03T12:56:39.857Z,97888.38
2022-11-03T12:59:28.767Z,97882.94
2022-11-03T13:02:16.796Z,97866.81
2022-11-03T13:05:05.043Z,97860.28
2022-11-03T13:07:53.269Z,97854.53
2022-11-03T13:10:40.677Z,97854.09
2022-11-03T13:13:28.154Z,97854.97
2022-11-03T13:16:17.187Z,97846.00
2022-11-03T13:19:04.699Z,97838.53
2022-11-03T13:21:52.191Z,97826.06
2022-11-03T13:24:39.764Z,97819.13
2022-11-03T13:27:28.790Z,97813.13
2022-11-03T13:30:16.548Z,97818.06
2022-11-03T13:33:05.959Z,97815.13
2022-11-03T13:35:54.083Z,97819.50
2022-11-03T13:38:41.958Z,97804.19
2022-11-03T13:41:29.582Z,97802.31
2022-11-03T13:44:17.131Z,97805.13
2022-11-03T13:47:07.709Z,97792.81
2022-11-03T13:50:13.531Z,97788.44
2022-11-03T13:56:13.229Z,97787.56
2022-11-03T14:05:21.944Z,97789.69
2022-11-03T14:08:09.902Z,97785.41
2022-11-03T14:10:57.613Z,97768.56
2022-11-03T14:13:44.287Z,97780.06
2022-11-03T14:16:31.864Z,97768.56
2022-11-03T14:19:20.213Z,97760.19
2022-11-03T14:22:09.357Z,97758.41
2022-11-03T14:24:57.012Z,97741.78
2022-11-03T14:27:44.831Z,97747.28
2022-11-03T14:30:32.310Z,97755.19
2022-11-03T14:33:20.166Z,97745.91
2022-11-03T14:36:08.367Z,97752.09
2022-11-03T14:38:57.457Z,97746.97
2022-11-03T14:42:02.907Z,97753.19
2022-11-03T14:47:39.721Z,97747.03
2022-11-03T14:50:27.299Z,97735.41
2022-11-03T14:53:14.674Z,97742.41
2022-11-03T14:56:03.737Z,97733.38
2022-11-03T14:58:51.108Z,97725.97
2022-11-03T15:01:39.058Z,97726.63
2022-11-03T15:04:27.289Z,97712.78
2022-11-03T15:07:14.750Z,97703.03
2022-11-03T15:10:02.688Z,97702.47
2022-11-03T15:12:51.412Z,97698.34
2022-11-03T15:15:40.962Z,97693.75
2022-11-03T15:18:28.770Z,97694.19
2022-11-03T15:21:16.857Z,97684.47
2022-11-03T15:27:12.790Z,97665.56
2022-11-03T15:30:01.797Z,97664.56
2022-11-03T15:32:49.913Z,97650.59
2022-11-03T15:35:37.683Z,97643.50
2022-11-03T15:38:25.558Z,97638.69
2022-11-03T15:41:19.461Z,97633.91
2022-11-03T15:44:07.217Z,97623.34
2022-11-03T15:46:58.827Z,97628.00
2022-11-03T15:49:46.470Z,97630.13
2022-11-03T15:52:34.598Z,97627.81
2022-11-03T15:55:22.859Z,97624.97
2022-11-03T15:58:10.430Z,97629.09
2022-11-03T16:00:58.256Z,97624.03
2022-11-03T16:03:47.208Z,97626.53
2022-11-03T16:09:44.209Z,97612.19
2022-11-03T16:12:31.840Z,97594.22
2022-11-03T16:15:19.204Z,97594.22
2022-11-03T16:18:07.026Z,97587.28
2022-11-03T16:20:56.414Z,97581.00
2022-11-03T16:23:44.498Z,97579.66
2022-11-03T16:26:32.489Z,97580.63
2022-11-03T16:29:20.004Z,97582.94
2022-11-03T16:32:07.816Z,97575.13
2022-11-03T16:34:55.328Z,97575.91
2022-11-03T16:37:44.447Z,97576.91
2022-11-03T16:40:32.008Z,97577.56
2022-11-03T16:43:19.566Z,97570.28
2022-11-03T16:46:07.308Z,97569.25
2022-11-03T16:48:55.453Z,97556.22
2022-11-03T16:51:43.205Z,97548.25
2022-11-03T16:54:32.107Z,97548.41
2022-11-03T16:57:19.725Z,97542.97
2022-11-03T17:00:13.513Z,97544.16
2022-11-03T17:03:00.965Z,97548.03
2022-11-03T17:05:48.559Z,97543.66
2022-11-03T17:08:52.434Z,97545.50
2022-11-03T17:11:42.484Z,97540.31
2022-11-03T17:15:12.284Z,97531.66
2022-11-03T17:18:00.340Z,97529.69
2022-11-03T17:20:48.058Z,97526.44
2022-11-03T17:23:35.867Z,97534.41
2022-11-03T17:26:42.875Z,97529.75
2022-11-03T17:29:36.482Z,97526.78
2022-11-03T17:32:28.438Z,97521.19
2022-11-03T17:35:22.541Z,97505.59
2022-11-03T17:38:15.296Z,97507.75
2022-11-03T17:41:02.928Z,97509.75
2022-11-03T17:43:50.391Z,97499.97
2022-11-03T17:46:39.406Z,97492.81
2022-11-03T17:49:27.316Z,97490.00
2022-11-03T17:52:23.492Z,97477.69
2022-11-03T17:55:24.316Z,97478.88
2022-11-03T17:58:13.476Z,97475.56
2022-11-03T18:01:02.800Z,97468.94
2022-11-03T18:03:53.137Z,97462.00
2022-11-03T18:06:41.902Z,97447.88
2022-11-03T18:09:29.638Z,97449.91
2022-11-03T18:12:38.985Z,97446.94
2022-11-03T18:15:29.339Z,97449.59
2022-11-03T18:18:26.190Z,97439.13
2022-11-03T18:21:17.912Z,97427.66
2022-11-03T18:24:13.630Z,97424.38
2022-11-03T18:27:01.470Z,97419.06
2022-11-03T18:29:48.918Z,97403.31
2022-11-03T18:32:37.952Z,97392.88
2022-11-03T18:35:33.675Z,97396.00
2022-11-03T18:38:25.125Z,97393.88
2022-11-03T18:41:33.932Z,97391.56
2022-11-03T18:44:25.180Z,97393.09
2022-11-03T18:47:13.197Z,97377.97
2022-11-03T18:50:01.126Z,97368.38
2022-11-03T18:52:52.014Z,97358.94
2022-11-03T18:55:41.432Z,97349.50
2022-11-03T18:58:29.235Z,97346.19
2022-11-03T19:01:23.841Z,97337.91
2022-11-03T19:04:15.025Z,97332.50
2022-11-03T19:07:03.757Z,97337.31
2022-11-03T19:09:51.926Z,97336.84
2022-11-03T19:12:44.762Z,97341.31
2022-11-03T19:15:32.304Z,97342.00
2022-11-03T19:18:22.100Z,97335.06
2022-11-03T19:21:15.177Z,97331.53
2022-11-03T19:24:03.102Z,97339.00
2022-11-03T19:26:58.589Z,97319.44
2022-11-03T19:29:49.478Z,97323.09
2022-11-03T19:32:43.127Z,97317.03
2022-11-03T19:35:33.906Z,97318.72
2022-11-03T19:38:22.240Z,97315.56
2022-11-03T19:41:36.145Z,97309.63
2022-11-03T19:44:23.730Z,97300.13
2022-11-03T19:47:18.538Z,97298.16
2022-11-03T19:50:20.904Z,97293.72
2022-11-03T19:53:23.486Z,97291.22
2022-11-03T19:56:13.378Z,97287.06
2022-11-03T19:59:07.020Z,97295.81
2022-11-03T20:01:54.568Z,97283.53
2022-11-03T20:04:47.361Z,97284.72
2022-11-03T20:07:35.231Z,97283.53
2022-11-03T20:10:23.147Z,97291.22
2022-11-03T20:13:15.000Z,97290.03
2022-11-03T20:16:02.932Z,97274.97
2022-11-03T20:18:52.373Z,97272.94
2022-11-03T20:21:42.629Z,97275.66
2022-11-03T20:24:30.460Z,97283.19
2022-11-03T20:27:24.265Z,97279.88
2022-11-03T20:30:16.454Z,97279.88
2022-11-03T20:33:04.270Z,97275.31
2022-11-03T20:35:55.910Z,97282.25
2022-11-03T20:38:48.584Z,97269.16
2022-11-03T20:41:36.434Z,97270.00
2022-11-03T20:44:24.497Z,97282.25
2022-11-03T20:47:14.597Z,97263.97
2022-11-03T20:50:04.415Z,97251.72
2022-11-03T20:52:52.449Z,97253.72
2022-11-03T20:55:41.677Z,97268.63
2022-11-03T20:58:29.621Z,97283.09
2022-11-03T21:01:25.132Z,97265.47
2022-11-03T21:04:17.079Z,97253.00
2022-11-03T21:07:05.364Z,97235.06
2022-11-03T21:09:53.274Z,97234.25
2022-11-03T21:12:45.571Z,97259.84
2022-11-03T21:16:18.184Z,97248.03
2022-11-03T21:19:15.486Z,97232.78
2022-11-03T21:22:03.507Z,97234.94
2022-11-03T21:24:51.467Z,97226.81
2022-11-03T21:27:41.727Z,97234.78
2022-11-03T21:30:31.184Z,97228.84
2022-11-03T21:33:19.400Z,97225.34
2022-11-03T21:36:07.662Z,97218.22
2022-11-03T21:38:54.986Z,97213.25
2022-11-03T21:42:00.339Z,97220.38
2022-11-03T21:44:47.924Z,97217.72
2022-11-03T21:47:36.743Z,97216.94
2022-11-03T21:50:23.351Z,97223.03
2022-11-03T21:53:12.550Z,97211.63
2022-11-03T21:56:00.833Z,97201.81
2022-11-03T21:58:48.375Z,97197.69
2022-11-03T22:01:35.758Z,97189.75
2022-11-03T22:04:25.355Z,97191.72
2022-11-03T22:07:13.130Z,97192.91
2022-11-03T22:10:00.879Z,97200.03
2022-11-03T22:12:48.500Z,97200.88
2022-11-03T22:15:53.848Z,97203.72
2022-11-03T22:18:41.657Z,97215.16
2022-11-03T22:21:47.849Z,97228.25
2022-11-03T22:24:53.429Z,97236.84
2022-11-03T22:27:40.784Z,97218.63
2022-11-03T22:30:46.133Z,97232.06
2022-11-03T22:33:54.775Z,97220.81
2022-11-03T22:36:43.042Z,97225.28
2022-11-03T22:39:48.461Z,97224.63
2022-11-03T22:42:53.908Z,97202.78
2022-11-03T22:45:52.368Z,97214.41
2022-11-03T22:48:40.354Z,97210.06
2022-11-03T22:51:28.032Z,97214.75
2022-11-03T22:54:16.923Z,97214.06
2022-11-03T22:57:04.563Z,97220.22
2022-11-03T22:59:52.321Z,97219.38
2022-11-03T23:02:39.929Z,97217.75
2022-11-03T23:05:27.353Z,97219.56
2022-11-03T23:08:14.995Z,97210.75
2022-11-03T23:11:16.116Z,97208.78
2022-11-03T23:14:06.293Z,97219.91
2022-11-03T23:16:53.948Z,97208.47
2022-11-03T23:20:01.612Z,97205.47
2022-11-03T23:22:49.240Z,97210.31
2022-11-03T23:25:36.182Z,97205.00
2022-11-03T23:28:25.769Z,97200.50
2022-11-03T23:31:14.033Z,97207.66
2022-11-03T23:34:01.670Z,97208.47
2022-11-03T23:36:49.387Z,97216.41
2022-11-03T23:39:37.284Z,97230.34
2022-11-03T23:42:24.502Z,97233.50
2022-11-03T23:45:30.965Z,97245.94
2022-11-03T23:48:36.204Z,97244.47
2022-11-03T23:51:26.422Z,97257.38
2022-11-03T23:54:14.953Z,97253.91
2022-11-03T23:57:20.292Z,97259.56
